Time;durP1;ratioP1;P1;durP2;ratioP2;P2;SDS_P1;SDS_P2;PMS_P1;PMS_P2;Temp;Humidity;BMP_temperature;BMP_pressure;BME280_temperature;BME280_humidity;BME280_pressure;Samples;Min_cycle;Max_cycle;Signal;HPM_P1;HPM_P2
2021/11/24 00:04:08;;;;;;;29.27;18.60;;;;;;;4.18;63.41;101017.81;10384986;28;20049;-64
2021/11/24 00:09:10;;;;;;;33.97;19.45;;;;;;;4.24;63.53;101013.41;10386492;28;20141;-64
2021/11/24 00:14:11;;;;;;;27.92;17.27;;;;;;;4.18;63.67;101013.50;10385104;28;20084;-64
2021/11/24 00:19:13;;;;;;;30.55;18.85;;;;;;;4.10;63.91;101005.00;10381125;28;20136;-64
2021/11/24 00:24:15;;;;;;;28.48;18.67;;;;;;;4.22;63.70;101001.34;10384473;28;20057;-64
2021/11/24 00:29:16;;;;;;;25.95;18.45;;;;;;;4.30;63.60;101004.66;10385300;28;20045;-64
2021/11/24 00:34:18;;;;;;;26.83;18.38;;;;;;;4.34;63.39;100995.97;10381801;28;20186;-64
2021/11/24 00:39:20;;;;;;;28.33;18.00;;;;;;;4.36;63.13;100996.78;10384037;28;20060;-64
2021/11/24 00:44:22;;;;;;;28.38;18.30;;;;;;;4.34;63.16;100993.38;10400100;28;20134;-64
2021/11/24 00:49:24;;;;;;;27.80;18.50;;;;;;;4.38;63.22;100995.03;10383851;28;20042;-65
2021/11/24 00:54:25;;;;;;;29.42;18.10;;;;;;;4.41;63.32;100990.63;10382645;28;20163;-64
2021/11/24 00:59:27;;;;;;;27.00;18.83;;;;;;;4.44;62.99;100989.75;10383867;28;20045;-64
2021/11/24 01:04:28;;;;;;;29.48;17.80;;;;;;;4.42;62.99;100986.31;10383817;28;20050;-65
2021/11/24 01:09:30;;;;;;;27.90;18.02;;;;;;;4.42;63.07;100984.59;10383839;28;20407;-65
2021/11/24 01:14:32;;;;;;;31.88;19.65;;;;;;;4.36;63.18;100976.94;10380881;28;20072;-64
2021/11/24 01:19:34;;;;;;;33.55;20.50;;;;;;;4.25;63.43;100983.19;10383828;28;20049;-65
2021/11/24 01:24:35;;;;;;;37.28;21.00;;;;;;;4.23;63.50;100970.25;10380213;28;20147;-64
2021/11/24 01:29:37;;;;;;;32.65;19.23;;;;;;;4.28;63.39;100967.59;10365980;28;20486;-64
2021/11/24 01:34:39;;;;;;;34.30;18.77;;;;;;;4.17;63.54;100966.94;10382674;28;20068;-64
2021/11/24 01:39:41;;;;;;;31.83;18.73;;;;;;;3.92;64.06;100957.88;10382176;28;20057;-64
2021/11/24 01:44:43;;;;;;;31.30;18.52;;;;;;;3.75;64.30;100964.13;10378225;28;20049;-65
2021/11/24 01:49:44;;;;;;;31.23;20.17;;;;;;;3.69;64.60;100958.19;10382957;28;20053;-64
2021/11/24 01:54:46;;;;;;;29.98;19.65;;;;;;;3.62;64.81;100944.50;10379542;28;20457;-64
2021/11/24 01:59:48;;;;;;;31.65;18.85;;;;;;;3.54;65.08;100942.91;10390654;28;20057;-65
2021/11/24 02:04:49;;;;;;;33.85;18.50;;;;;;;3.51;65.16;100945.53;10390133;28;20060;-64
2021/11/24 02:09:51;;;;;;;31.08;18.20;;;;;;;3.55;65.11;100936.84;10391029;28;20137;-64
2021/11/24 02:14:53;;;;;;;29.90;18.10;;;;;;;3.52;64.95;100935.16;10390251;28;20076;-65
2021/11/24 02:19:55;;;;;;;31.77;19.40;;;;;;;3.43;65.39;100929.28;10386222;28;20140;-64
2021/11/24 02:24:56;;;;;;;32.78;20.38;;;;;;;3.57;65.49;100928.22;10385835;28;20045;-65
2021/11/24 02:29:58;;;;;;;33.47;19.80;;;;;;;3.68;65.09;100922.88;10386537;28;20089;-64
2021/11/24 02:35:00;;;;;;;35.33;20.85;;;;;;;3.68;65.21;100923.69;10386924;28;20053;-64
2021/11/24 02:40:04;;;;;;;36.90;20.95;;;;;;;3.38;65.92;100910.38;10388185;28;20048;-64
2021/11/24 02:45:07;;;;;;;39.70;21.08;;;;;;;3.40;65.91;100912.09;10388919;28;20095;-64
2021/11/24 02:50:08;;;;;;;40.78;21.13;;;;;;;3.51;65.89;100920.53;10386262;28;20197;-64
2021/11/24 02:55:10;;;;;;;39.85;21.10;;;;;;;3.37;66.12;100903.53;10385175;28;20053;-64
2021/11/24 03:00:15;;;;;;;69.55;27.50;;;;;;;3.31;66.61;100895.88;10384486;28;20057;-64
2021/11/24 03:05:19;;;;;;;90.40;31.38;;;;;;;3.31;66.86;100890.69;10392672;28;20085;-64
2021/11/24 03:10:21;;;;;;;76.70;28.90;;;;;;;3.38;66.77;100876.78;10395599;28;20141;-64
2021/11/24 03:15:23;;;;;;;69.72;26.92;;;;;;;3.62;66.41;100872.06;10396182;28;20442;-64
2021/11/24 03:20:27;;;;;;;62.33;25.35;;;;;;;3.71;66.06;100868.47;10397145;28;20056;-64
2021/11/24 03:25:29;;;;;;;54.45;24.90;;;;;;;3.76;65.77;100849.41;10394852;28;20053;-64
2021/11/24 03:30:33;;;;;;;64.20;25.90;;;;;;;3.74;65.95;100840.81;10396421;28;20053;-64
2021/11/24 03:35:35;;;;;;;53.03;23.02;;;;;;;3.81;65.55;100844.16;10395564;28;20060;-65
2021/11/24 03:40:37;;;;;;;53.40;24.27;;;;;;;3.76;65.72;100839.06;10395940;28;20049;-64
2021/11/24 03:45:39;;;;;;;41.20;21.27;;;;;;;3.76;65.59;100831.28;10395736;28;20056;-64
2021/11/24 03:50:41;;;;;;;35.95;21.40;;;;;;;3.70;65.83;100828.00;10396051;28;20058;-64
2021/11/24 03:55:43;;;;;;;39.30;22.92;;;;;;;3.79;65.67;100825.22;10395056;28;20049;-64
2021/11/24 04:00:45;;;;;;;42.45;24.42;;;;;;;3.71;65.67;100820.19;10395565;28;20465;-65
2021/11/24 04:05:52;;;;;;;42.42;21.48;;;;;;;3.75;65.77;100823.56;10390532;28;20225;-64
2021/11/24 04:10:54;;;;;;;68.32;27.42;;;;;;;3.79;65.94;100827.81;10388216;28;20056;-64
2021/11/24 04:15:55;;;;;;;76.60;28.65;;;;;;;3.77;66.18;100829.56;10385385;28;20148;-64
2021/11/24 04:20:57;;;;;;;77.38;28.30;;;;;;;3.81;66.41;100823.47;10388118;28;20445;-64
2021/11/24 04:25:59;;;;;;;147.23;36.33;;;;;;;3.82;66.65;100810.47;10387238;28;20053;-64
2021/11/24 04:31:05;;;;;;;202.00;42.05;;;;;;;3.74;66.95;100809.78;10386829;28;20053;-65
2021/11/24 04:36:07;;;;;;;223.88;39.42;;;;;;;3.63;67.22;100805.69;10386625;28;20410;-64
2021/11/24 04:41:09;;;;;;;145.80;37.97;;;;;;;3.55;67.59;100797.19;10386691;28;20045;-64
2021/11/24 04:46:13;;;;;;;94.43;31.92;;;;;;;3.53;67.46;100793.78;10385992;28;20052;-64
2021/11/24 04:51:15;;;;;;;96.45;31.80;;;;;;;3.63;67.46;100791.03;10387036;28;20053;-64
2021/11/24 04:56:17;;;;;;;107.00;33.67;;;;;;;3.74;67.29;100798.59;10386250;28;20051;-64
2021/11/24 05:01:20;;;;;;;142.40;38.00;;;;;;;3.74;67.09;100796.00;10385148;28;20056;-64
2021/11/24 05:06:23;;;;;;;114.68;34.80;;;;;;;3.73;67.33;100796.88;10386449;28;20168;-64
2021/11/24 05:11:25;;;;;;;122.00;36.33;;;;;;;3.65;67.15;100791.84;10385923;28;20150;-64
2021/11/24 05:16:30;;;;;;;285.52;45.67;;;;;;;3.59;67.52;100793.69;10384643;28;20063;-64
2021/11/24 05:21:35;;;;;;;138.35;37.75;;;;;;;3.56;67.74;100785.97;10386065;28;20099;-63
2021/11/24 05:26:37;;;;;;;121.70;36.08;;;;;;;3.68;67.52;100785.78;10385179;28;20049;-65
2021/11/24 05:31:40;;;;;;;126.85;37.05;;;;;;;3.74;67.34;100786.50;10384433;28;20204;-64
2021/11/24 05:36:41;;;;;;;173.77;34.45;;;;;;;3.77;67.49;100788.16;10385105;28;20148;-64
2021/11/24 05:41:43;;;;;;;154.32;37.58;;;;;;;3.78;67.55;100788.13;10384577;28;20053;-64
2021/11/24 05:46:51;;;;;;;220.77;43.28;;;;;;;3.76;67.49;100787.31;10384291;28;21114;-64
2021/11/24 05:51:54;;;;;;;196.40;42.30;;;;;;;3.76;67.49;100779.56;10385161;28;20049;-63
2021/11/24 05:56:56;;;;;;;112.18;35.20;;;;;;;3.73;67.75;100771.88;10384646;28;20057;-63
2021/11/24 06:01:58;;;;;;;136.88;35.55;;;;;;;3.77;67.75;100770.06;10384434;28;20046;-63
2021/11/24 06:06:59;;;;;;;183.00;43.10;;;;;;;3.77;67.61;100758.00;10384679;28;20777;-64
2021/11/24 06:12:01;;;;;;;156.98;37.92;;;;;;;3.73;67.85;100763.25;10384703;28;20045;-64
2021/11/24 06:17:03;;;;;;;174.38;39.70;;;;;;;3.68;67.84;100765.91;10383503;28;20062;-64
2021/11/24 06:22:04;;;;;;;134.07;37.22;;;;;;;3.68;67.83;100763.31;10384172;28;20053;-64
2021/11/24 06:27:07;;;;;;;225.30;42.67;;;;;;;3.68;67.84;100765.91;10383942;28;20049;-64
2021/11/24 06:32:09;;;;;;;160.30;36.78;;;;;;;3.62;67.92;100768.59;10383882;28;20716;-64
2021/11/24 06:37:11;;;;;;;142.57;36.03;;;;;;;3.56;68.28;100762.69;10383907;28;20053;-64
2021/11/24 06:42:14;;;;;;;116.25;34.10;;;;;;;3.63;68.28;100752.22;10388543;28;20093;-64
2021/11/24 06:47:17;;;;;;;106.40;32.28;;;;;;;3.75;67.92;100756.31;10391103;28;20639;-64
2021/11/24 06:52:19;;;;;;;117.35;33.67;;;;;;;3.90;67.88;100760.38;10391440;28;20416;-64
2021/11/24 06:57:21;;;;;;;107.50;33.63;;;;;;;3.84;67.67;100749.25;10389345;28;20057;-64
2021/11/24 07:02:22;;;;;;;135.70;35.25;;;;;;;3.71;67.96;100760.69;10390290;28;20060;-62
2021/11/24 07:07:24;;;;;;;211.95;41.40;;;;;;;3.71;67.88;100767.59;10391780;28;20055;-63
2021/11/24 07:12:26;;;;;;;129.75;33.85;;;;;;;3.73;68.05;100756.34;10389231;28;20049;-63
2021/11/24 07:17:28;;;;;;;141.52;35.10;;;;;;;3.88;67.93;100751.78;10388298;28;20176;-63
2021/11/24 07:22:30;;;;;;;133.27;34.17;;;;;;;3.86;67.68;100755.25;10389725;28;20412;-63
2021/11/24 07:27:31;;;;;;;115.57;33.03;;;;;;;3.91;67.58;100746.53;10388025;28;20126;-64
2021/11/24 07:32:34;;;;;;;104.10;31.77;;;;;;;3.65;68.00;100747.88;10386775;28;20077;-73
2021/11/24 07:37:36;;;;;;;89.28;30.33;;;;;;;3.78;67.89;100741.56;10387419;28;20569;-73
2021/11/24 07:42:38;;;;;;;86.00;28.38;;;;;;;3.86;67.71;100746.66;10387657;28;20045;-72
2021/11/24 07:47:40;;;;;;;79.22;29.10;;;;;;;3.97;67.44;100742.09;10390121;28;20137;-76
2021/11/24 07:52:42;;;;;;;85.82;30.45;;;;;;;4.19;66.92;100748.53;10388788;28;20688;-76
2021/11/24 07:57:44;;;;;;;85.43;29.67;;;;;;;4.11;67.00;100736.66;10389446;28;20481;-76
2021/11/24 08:02:45;;;;;;;67.38;27.85;;;;;;;4.23;66.68;100731.22;10387832;28;20061;-76
2021/11/24 08:07:47;;;;;;;83.57;32.72;;;;;;;4.23;66.71;100732.06;10388754;28;20650;-76
2021/11/24 08:12:49;;;;;;;81.60;32.63;;;;;;;4.25;66.85;100719.94;10389167;28;20084;-77
2021/11/24 08:17:51;;;;;;;86.35;31.83;;;;;;;4.31;66.85;100718.97;10388556;28;20092;-76
2021/11/24 08:22:52;;;;;;;74.40;30.92;;;;;;;4.49;66.31;100721.16;10388730;28;20148;-75
2021/11/24 08:27:55;;;;;;;94.35;32.40;;;;;;;4.47;66.11;100715.16;10384818;28;20045;-76
2021/11/24 08:32:57;;;;;;;66.13;28.05;;;;;;;4.50;66.57;100710.75;10384588;28;20160;-76
2021/11/24 08:37:59;;;;;;;69.85;27.60;;;;;;;4.56;65.84;100707.16;10386734;28;20045;-77
2021/11/24 08:43:02;;;;;;;55.85;25.75;;;;;;;4.56;65.94;100695.06;10388033;28;20502;-77
2021/11/24 08:48:04;;;;;;;59.72;27.00;;;;;;;4.55;65.91;100692.50;10378627;28;20136;-76
2021/11/24 08:53:06;;;;;;;54.75;25.83;;;;;;;4.67;65.55;100687.91;10386493;28;20433;-77
2021/11/24 08:58:08;;;;;;;62.45;27.75;;;;;;;4.64;65.73;100680.19;10385547;28;20527;-77
2021/11/24 09:03:10;;;;;;;56.22;25.55;;;;;;;4.79;65.27;100676.38;10386055;28;20041;-76
2021/11/24 09:08:12;;;;;;;53.20;25.90;;;;;;;4.93;64.95;100674.31;10387203;28;20051;-77
2021/11/24 09:13:14;;;;;;;55.20;26.42;;;;;;;5.03;64.83;100670.59;10385759;28;20110;-77
2021/11/24 09:18:16;;;;;;;55.35;26.65;;;;;;;5.21;64.44;100679.63;10384843;28;20061;-76
2021/11/24 09:23:20;;;;;;;49.20;25.20;;;;;;;5.37;63.98;100667.97;10383262;28;20132;-74
2021/11/24 09:28:29;;;;;;;57.67;27.30;;;;;;;5.37;63.94;100661.03;10379542;28;20103;-78
2021/11/24 09:33:31;;;;;;;50.00;25.52;;;;;;;5.37;63.97;100653.25;10384822;28;20050;-77
2021/11/24 09:38:33;;;;;;;55.78;26.77;;;;;;;5.46;63.65;100650.41;10383888;28;20247;-77
2021/11/24 09:43:47;;;;;;;55.50;24.85;;;;;;;5.45;63.57;100650.47;10384188;28;20505;-76
2021/11/24 09:48:51;;;;;;;46.55;24.20;;;;;;;5.54;63.12;100639.81;10385139;28;20092;-76
2021/11/24 09:53:54;;;;;;;49.20;24.80;;;;;;;5.54;63.29;100632.88;10385413;28;20072;-76
2021/11/24 09:58:56;;;;;;;43.10;23.48;;;;;;;5.57;63.29;100631.97;10386112;28;20144;-78
2021/11/24 10:03:58;;;;;;;48.40;25.35;;;;;;;5.64;62.96;100628.28;10384631;28;20068;-79
2021/11/24 10:09:01;;;;;;;51.25;26.02;;;;;;;5.59;62.79;100606.81;10384480;28;20053;-79
2021/11/24 10:14:03;;;;;;;49.45;25.40;;;;;;;5.82;62.48;100596.59;10383635;28;20502;-78
2021/11/24 10:19:12;;;;;;;42.05;23.05;;;;;;;5.89;62.23;100586.88;10392538;28;20177;-76
2021/11/24 10:24:27;;;;;;;44.92;24.70;;;;;;;6.07;62.21;100575.94;10392638;28;20080;-77
2021/11/24 10:29:30;;;;;;;47.38;24.65;;;;;;;6.26;61.66;100564.97;10391733;28;20089;-78
2021/11/24 10:34:35;;;;;;;47.67;25.83;;;;;;;6.39;61.47;100561.97;10392338;28;20141;-77
2021/11/24 10:39:51;;;;;;;50.35;26.35;;;;;;;6.58;60.71;100558.72;10392021;28;20058;-78
2021/11/24 10:44:54;;;;;;;46.63;24.42;;;;;;;6.28;61.19;100554.53;10392386;28;20136;-77
2021/11/24 10:49:59;;;;;;;40.40;23.15;;;;;;;6.32;61.35;100549.19;10392210;28;20045;-78
2021/11/24 10:55:14;;;;;;;45.42;23.00;;;;;;;6.63;60.41;100537.75;10390479;28;20050;-78
2021/11/24 11:00:21;;;;;;;40.50;22.42;;;;;;;6.70;60.27;100523.66;10391898;28;20719;-77
2021/11/24 11:05:25;;;;;;;38.55;21.38;;;;;;;6.68;60.57;100515.06;10391887;28;20050;-76
2021/11/24 11:10:35;;;;;;;43.17;21.83;;;;;;;6.59;59.99;100512.78;10391364;28;20648;-77
2021/11/24 11:15:38;;;;;;;36.42;21.75;;;;;;;6.45;60.56;100495.03;10391760;28;20350;-78
2021/11/24 11:20:41;;;;;;;37.47;21.15;;;;;;;6.64;60.45;100493.53;10393735;28;20811;-78
2021/11/24 11:25:49;;;;;;;38.15;20.73;;;;;;;6.67;60.12;100479.59;10388900;28;20413;-76
2021/11/24 11:30:52;;;;;;;36.40;20.60;;;;;;;6.89;59.95;100457.13;10388785;28;20060;-77
2021/11/24 11:35:56;;;;;;;32.83;18.08;;;;;;;7.10;59.06;100448.53;10387985;28;20080;-76
2021/11/24 11:41:00;;;;;;;28.92;17.25;;;;;;;7.09;58.94;100436.41;10391215;28;20518;-76
2021/11/24 11:46:25;;;;;;;27.23;16.10;;;;;;;7.07;58.69;100428.69;10389133;28;20080;-77
2021/11/24 11:51:32;;;;;;;27.88;17.63;;;;;;;7.16;58.84;100411.88;10388242;28;20493;-78
2021/11/24 11:56:38;;;;;;;29.20;17.20;;;;;;;7.13;58.97;100409.38;10389336;28;20528;-76
2021/11/24 12:01:42;;;;;;;29.00;17.25;;;;;;;7.06;58.86;100393.16;10388852;28;20486;-76
2021/11/24 12:06:52;;;;;;;31.02;16.77;;;;;;;7.20;58.36;100380.47;10387691;28;20343;-77
2021/11/24 12:12:09;;;;;;;29.60;16.98;;;;;;;7.13;58.05;100379.03;10386651;28;20452;-75
2021/11/24 12:17:27;;;;;;;26.92;15.88;;;;;;;7.17;58.04;100366.75;10388273;28;20057;-75
2021/11/24 12:22:54;;;;;;;24.58;12.93;;;;;;;7.20;57.00;100362.25;10387267;28;20111;-76
2021/11/24 12:28:02;;;;;;;24.77;14.77;;;;;;;7.31;57.75;100346.25;10386701;28;20771;-77
2021/11/24 12:33:14;;;;;;;23.90;14.48;;;;;;;7.52;57.52;100337.56;10387203;28;20053;-75
2021/11/24 12:38:17;;;;;;;22.35;13.52;;;;;;;7.43;57.20;100331.88;10386269;28;20054;-76
2021/11/24 12:43:22;;;;;;;12.57;7.60;;;;;;;7.56;56.55;100315.72;10387024;28;20055;-75
2021/11/24 12:48:58;;;;;;;9.52;4.47;;;;;;;7.65;53.63;100304.91;10385661;28;20455;-76
2021/11/24 12:54:27;;;;;;;4.82;2.67;;;;;;;7.47;52.69;100295.25;10384947;28;20152;-71
2021/11/24 12:59:31;;;;;;;4.55;2.13;;;;;;;7.59;54.40;100299.97;10386020;28;20049;-78
2021/11/24 13:04:42;;;;;;;3.95;1.55;;;;;;;7.53;53.62;100289.81;10386162;28;20437;-77
2021/11/24 13:09:44;;;;;;;3.63;1.50;;;;;;;7.42;53.39;100285.97;10386447;28;20053;-76
2021/11/24 13:14:49;;;;;;;2.40;1.30;;;;;;;7.17;52.92;100293.91;10385231;28;20053;-77
2021/11/24 13:20:15;;;;;;;2.08;1.17;;;;;;;7.18;52.99;100287.81;10386030;28;20072;-76
2021/11/24 13:25:26;;;;;;;2.42;1.35;;;;;;;6.99;52.91;100281.66;10386142;28;20053;-76
2021/11/24 13:30:49;;;;;;;2.13;1.23;;;;;;;7.13;53.00;100274.13;10401615;28;20084;-76
2021/11/24 13:35:55;;;;;;;1.95;1.40;;;;;;;7.15;52.51;100264.53;10385485;28;20061;-75
2021/11/24 13:41:12;;;;;;;2.08;1.30;;;;;;;7.17;52.76;100254.91;10386609;28;20322;-76
2021/11/24 13:46:22;;;;;;;1.85;1.27;;;;;;;7.05;52.98;100245.00;10382606;28;20083;-75
2021/11/24 13:51:23;;;;;;;2.05;1.40;;;;;;;7.00;53.53;100244.31;10383900;28;20053;-77
2021/11/24 13:56:25;;;;;;;3.50;1.70;;;;;;;7.01;53.38;100233.03;10386244;28;20395;-76
2021/11/24 14:01:34;;;;;;;3.30;1.73;;;;;;;6.86;52.68;100220.63;10386054;28;20068;-77
2021/11/24 14:07:12;;;;;;;2.60;1.63;;;;;;;6.85;53.19;100221.56;10377109;28;20048;-76
2021/11/24 14:12:29;;;;;;;3.10;1.50;;;;;;;6.84;52.85;100207.69;10368330;28;20510;-77
2021/11/24 14:17:34;;;;;;;2.78;1.60;;;;;;;6.82;52.98;100206.06;10383271;28;20062;-76
2021/11/24 14:22:39;;;;;;;2.60;1.67;;;;;;;6.83;53.27;100197.38;10383909;28;20045;-76
2021/11/24 14:27:42;;;;;;;4.22;1.63;;;;;;;6.87;53.32;100181.59;10383961;28;20056;-76
2021/11/24 14:32:45;;;;;;;2.88;1.70;;;;;;;6.71;52.66;100184.88;10383982;28;20063;-75
2021/11/24 14:37:48;;;;;;;4.97;1.60;;;;;;;6.64;53.41;100181.66;10383717;28;20480;-75
2021/11/24 14:42:55;;;;;;;3.70;1.52;;;;;;;6.65;53.83;100178.16;10382112;28;20083;-75
2021/11/24 14:47:57;;;;;;;3.58;2.00;;;;;;;6.72;54.24;100171.81;10383672;28;20054;-75
2021/11/24 14:52:59;;;;;;;2.90;1.70;;;;;;;6.77;53.89;100169.88;10384427;28;20049;-75
2021/11/24 14:58:22;;;;;;;4.03;1.73;;;;;;;6.73;53.71;100155.31;10384033;28;20069;-74
2021/11/24 15:03:26;;;;;;;2.50;1.60;;;;;;;6.55;53.74;100155.22;10388811;28;21079;-75
2021/11/24 15:08:29;;;;;;;5.47;2.00;;;;;;;6.50;53.92;100142.38;10391754;28;20124;-76
2021/11/24 15:13:31;;;;;;;3.47;1.90;;;;;;;6.19;53.84;100140.09;10391107;28;20056;-75
2021/11/24 15:18:33;;;;;;;3.28;1.80;;;;;;;6.10;54.97;100132.66;10390840;28;20135;-74
2021/11/24 15:23:36;;;;;;;3.95;1.92;;;;;;;6.04;54.91;100119.91;10390569;28;20490;-75
2021/11/24 15:28:38;;;;;;;3.42;2.08;;;;;;;6.00;54.80;100123.53;10387726;28;21170;-75
2021/11/24 15:33:40;;;;;;;4.07;2.10;;;;;;;5.98;55.00;100116.72;10389924;28;20506;-75
2021/11/24 15:38:42;;;;;;;7.78;2.47;;;;;;;5.89;55.04;100104.94;10388498;28;20045;-76
2021/11/24 15:43:43;;;;;;;3.83;1.95;;;;;;;5.72;55.27;100090.88;10390077;28;20303;-75
2021/11/24 15:48:46;;;;;;;6.78;2.25;;;;;;;5.55;55.77;100086.34;10388939;28;20141;-75
2021/11/24 15:53:48;;;;;;;4.72;2.22;;;;;;;5.40;56.28;100079.13;10388846;28;20053;-76
2021/11/24 15:58:53;;;;;;;4.07;2.38;;;;;;;5.23;56.76;100071.09;10389505;28;20050;-75
2021/11/24 16:03:55;;;;;;;5.28;2.28;;;;;;;5.18;57.02;100062.63;10388932;28;20403;-75
2021/11/24 16:08:57;;;;;;;4.90;2.35;;;;;;;5.09;57.23;100065.53;10388885;28;20140;-75
2021/11/24 16:13:59;;;;;;;5.15;2.78;;;;;;;4.99;57.03;100061.59;10386101;28;20552;-74
2021/11/24 16:19:02;;;;;;;5.30;2.30;;;;;;;4.90;57.60;100057.59;10387962;28;20067;-74
2021/11/24 16:24:05;;;;;;;8.13;4.40;;;;;;;4.82;58.09;100054.38;10387896;28;20614;-74
2021/11/24 16:29:06;;;;;;;13.98;7.57;;;;;;;4.82;58.12;100061.34;10388168;28;20148;-74
2021/11/24 16:34:08;;;;;;;17.65;10.13;;;;;;;4.86;58.24;100057.75;10384296;28;20479;-74
2021/11/24 16:39:11;;;;;;;18.48;10.07;;;;;;;4.85;58.51;100056.03;10387303;28;20119;-64
2021/11/24 16:44:12;;;;;;;15.00;9.20;;;;;;;4.87;58.54;100046.47;10386386;28;20921;-64
2021/11/24 16:49:17;;;;;;;15.30;8.45;;;;;;;4.88;58.62;100043.00;10387254;28;20502;-65
2021/11/24 16:54:18;;;;;;;10.52;7.40;;;;;;;4.82;58.72;100041.44;10386744;28;20156;-64
2021/11/24 16:59:20;;;;;;;12.68;8.32;;;;;;;4.80;58.63;100034.63;10385949;28;20414;-64
2021/11/24 17:04:22;;;;;;;12.23;7.25;;;;;;;4.71;58.72;100033.19;10386520;28;20050;-65
2021/11/24 17:09:24;;;;;;;6.00;3.90;;;;;;;4.51;59.24;100031.31;10385506;28;20053;-64
2021/11/24 17:14:26;;;;;;;5.55;3.70;;;;;;;4.26;59.66;100030.41;10385056;28;20850;-64
2021/11/24 17:19:27;;;;;;;6.22;3.45;;;;;;;4.00;59.91;100020.03;10385751;28;20579;-64
2021/11/24 17:24:32;;;;;;;6.07;3.60;;;;;;;3.74;59.95;100007.88;10384835;28;20056;-65
2021/11/24 17:29:52;;;;;;;5.80;3.60;;;;;;;3.40;61.03;100002.03;10385844;28;20049;-64
2021/11/24 17:34:53;;;;;;;8.20;4.35;;;;;;;3.29;61.44;99996.34;10385876;28;20596;-64
2021/11/24 17:39:55;;;;;;;8.75;5.20;;;;;;;3.18;61.75;99985.47;10384762;28;20395;-65
2021/11/24 17:44:57;;;;;;;6.25;3.92;;;;;;;3.02;61.89;99987.66;10384914;28;20055;-63
2021/11/24 17:49:59;;;;;;;5.35;3.63;;;;;;;2.81;62.08;99979.63;10385328;28;20050;-64
2021/11/24 17:55:01;;;;;;;4.63;3.17;;;;;;;2.70;62.74;99976.50;10383414;28;20383;-64
2021/11/24 18:00:06;;;;;;;6.80;3.33;;;;;;;2.70;62.80;99964.41;10380568;28;20056;-65
2021/11/24 18:05:09;;;;;;;4.88;3.35;;;;;;;2.70;63.13;99961.00;10381809;28;20057;-64
2021/11/24 18:10:11;;;;;;;6.22;3.45;;;;;;;2.64;63.26;99953.44;10378987;28;20572;-64
2021/11/24 18:15:16;;;;;;;5.32;3.60;;;;;;;2.57;63.23;99959.63;10382554;28;20567;-64
2021/11/24 18:20:18;;;;;;;6.30;3.63;;;;;;;2.42;63.78;99953.16;10383233;28;20691;-64
2021/11/24 18:25:20;;;;;;;6.35;3.30;;;;;;;2.39;63.70;99955.81;10380507;28;20053;-63
2021/11/24 18:30:21;;;;;;;5.20;3.47;;;;;;;2.31;63.98;99942.28;10381828;28;20052;-64
2021/11/24 18:35:23;;;;;;;7.28;4.78;;;;;;;2.20;63.74;99933.94;10381991;28;20049;-64
2021/11/24 18:40:25;;;;;;;13.23;7.45;;;;;;;2.05;64.00;99932.59;10388896;28;20203;-65
2021/11/24 18:45:27;;;;;;;18.45;8.77;;;;;;;1.90;63.75;99937.31;10389185;28;20045;-63
2021/11/24 18:50:30;;;;;;;15.60;7.93;;;;;;;1.69;64.48;99930.09;10388850;28;20187;-64
2021/11/24 18:55:31;;;;;;;9.82;6.22;;;;;;;1.68;64.54;99930.97;10388410;28;20395;-64
2021/11/24 19:00:33;;;;;;;8.98;5.82;;;;;;;1.68;64.75;99926.69;10388908;28;20402;-65
2021/11/24 19:05:37;;;;;;;13.40;7.43;;;;;;;1.57;64.48;99926.06;10389139;28;20638;-64
2021/11/24 19:10:38;;;;;;;7.65;5.13;;;;;;;1.38;65.10;99925.66;10389134;28;20053;-64
2021/11/24 19:15:41;;;;;;;8.93;5.53;;;;;;;1.36;65.38;99906.78;10388476;28;20057;-64
2021/11/24 19:20:42;;;;;;;10.05;6.07;;;;;;;1.33;65.20;99904.31;10388377;28;20049;-64
2021/11/24 19:25:44;;;;;;;9.63;5.97;;;;;;;1.28;65.25;99895.81;10388944;28;20144;-64
2021/11/24 19:30:47;;;;;;;8.43;5.60;;;;;;;1.22;65.44;99880.50;10387333;28;20952;-64
2021/11/24 19:35:49;;;;;;;10.23;5.93;;;;;;;1.19;65.58;99872.88;10388131;28;20551;-64
2021/11/24 19:40:51;;;;;;;10.55;6.60;;;;;;;1.14;65.20;99879.84;10387309;28;20136;-64
2021/11/24 19:45:59;;;;;;;11.70;7.00;;;;;;;1.09;65.20;99871.38;10387765;28;20041;-64
2021/11/24 19:51:00;;;;;;;11.57;7.10;;;;;;;1.03;65.34;99875.81;10386319;28;20129;-64
2021/11/24 19:56:02;;;;;;;10.30;7.32;;;;;;;0.74;65.16;99858.41;10387311;28;20129;-64
2021/11/24 20:01:04;;;;;;;9.90;6.13;;;;;;;0.63;66.31;99868.06;10387959;28;20132;-64
2021/11/24 20:06:06;;;;;;;10.20;7.00;;;;;;;0.73;65.86;99851.56;10383863;28;20045;-64
2021/11/24 20:11:08;;;;;;;10.50;7.07;;;;;;;0.89;65.78;99852.09;10387107;28;20052;-64
2021/11/24 20:16:11;;;;;;;11.43;7.90;;;;;;;1.08;65.84;99849.06;10386428;28;20064;-64
2021/11/24 20:21:13;;;;;;;12.10;7.63;;;;;;;1.27;65.53;99850.34;10386492;28;20574;-64
2021/11/24 20:26:15;;;;;;;10.48;7.28;;;;;;;1.44;65.30;99842.22;10385941;28;20303;-65
2021/11/24 20:31:18;;;;;;;10.25;7.13;;;;;;;1.56;65.19;99838.50;10385975;28;20077;-65
2021/11/24 20:36:20;;;;;;;11.75;6.90;;;;;;;1.69;64.79;99832.13;10386413;28;20049;-65
2021/11/24 20:41:24;;;;;;;11.90;6.97;;;;;;;1.74;64.80;99825.97;10385610;28;20115;-65
2021/11/24 20:46:26;;;;;;;12.68;8.05;;;;;;;1.87;64.48;99826.53;10384985;28;20052;-64
2021/11/24 20:51:28;;;;;;;11.18;7.25;;;;;;;1.98;64.38;99822.75;10385911;28;20151;-64
2021/11/24 20:56:30;;;;;;;13.05;7.70;;;;;;;2.06;64.06;99809.66;10383013;28;20042;-65
2021/11/24 21:01:32;;;;;;;11.27;7.55;;;;;;;2.06;64.11;99792.44;10382500;28;20417;-64
2021/11/24 21:06:34;;;;;;;12.50;8.43;;;;;;;2.11;63.92;99789.75;10383811;28;20049;-65
2021/11/24 21:11:37;;;;;;;11.13;7.70;;;;;;;2.16;63.72;99786.13;10383205;28;20057;-64
2021/11/24 21:16:57;;;;;;;9.88;7.32;;;;;;;2.09;63.82;99783.78;10394158;28;20132;-65
2021/11/24 21:21:59;;;;;;;13.43;7.78;;;;;;;2.03;63.85;99781.38;10384130;28;20140;-65
2021/11/24 21:27:04;;;;;;;10.55;6.95;;;;;;;2.14;63.95;99771.59;10382408;28;20049;-65
2021/11/24 21:32:06;;;;;;;9.85;6.85;;;;;;;1.99;64.24;99769.44;10382551;28;20053;-65
2021/11/24 21:37:08;;;;;;;10.07;6.60;;;;;;;2.06;63.84;99766.66;10383055;28;20049;-65
2021/11/24 21:42:10;;;;;;;10.73;6.53;;;;;;;1.98;63.86;99758.28;10382427;28;20131;-65
2021/11/24 21:47:13;;;;;;;9.65;6.47;;;;;;;1.96;64.17;99759.22;10382912;28;20069;-65
2021/11/24 21:52:15;;;;;;;12.40;8.25;;;;;;;1.91;64.32;99755.94;10380916;28;20088;-65
2021/11/24 21:57:19;;;;;;;11.85;8.27;;;;;;;2.12;64.53;99752.72;10382369;28;20046;-65
2021/11/24 22:02:21;;;;;;;10.38;7.05;;;;;;;2.02;64.27;99740.97;10382822;28;20322;-65
2021/11/24 22:07:34;;;;;;;13.88;6.80;;;;;;;2.11;64.39;99740.75;10382901;28;20198;-65
2021/11/24 22:12:37;;;;;;;13.68;8.60;;;;;;;2.08;64.32;99723.59;10386195;28;20107;-65
2021/11/24 22:17:38;;;;;;;11.77;8.32;;;;;;;2.13;63.98;99713.16;10390484;28;20069;-65
2021/11/24 22:22:40;;;;;;;11.65;7.65;;;;;;;2.06;64.41;99721.94;10389030;28;20144;-64
2021/11/24 22:27:42;;;;;;;13.15;7.72;;;;;;;2.17;64.03;99714.75;10391115;28;20069;-65
2021/11/24 22:32:44;;;;;;;11.35;7.18;;;;;;;2.17;64.15;99707.84;10390109;28;20379;-65
2021/11/24 22:37:46;;;;;;;9.75;7.22;;;;;;;2.30;64.01;99712.69;10389598;28;20139;-65
2021/11/24 22:42:47;;;;;;;10.90;6.95;;;;;;;2.37;64.00;99712.44;10388922;28;20037;-65
2021/11/24 22:47:49;;;;;;;13.43;8.25;;;;;;;2.29;63.82;99698.91;10390131;28;20061;-65
2021/11/24 22:52:51;;;;;;;12.60;7.90;;;;;;;2.12;64.13;99699.41;10387979;28;20052;-65
2021/11/24 22:57:52;;;;;;;13.55;8.55;;;;;;;2.07;64.24;99685.78;10389032;28;20497;-65
2021/11/24 23:02:54;;;;;;;12.10;7.38;;;;;;;2.02;64.82;99679.94;10389298;28;20393;-65
2021/11/24 23:07:56;;;;;;;11.55;8.07;;;;;;;1.95;64.58;99675.00;10387084;28;20542;-65
2021/11/24 23:12:58;;;;;;;10.45;8.05;;;;;;;2.05;64.71;99666.13;10387642;28;20713;-65
2021/11/24 23:17:59;;;;;;;14.90;9.05;;;;;;;2.10;64.70;99661.66;10388649;28;20140;-64